sensor_id;sensor_type;location;lat;lon;timestamp;temperature;humidity
7654;DHT22;3869;48.406;10.774;2023-07-28T00:00:29;16.00;99.90
7654;DHT22;3869;48.406;10.774;2023-07-28T00:02:57;16.00;99.90
7654;DHT22;3869;48.406;10.774;2023-07-28T00:05:25;15.90;99.90
7654;DHT22;3869;48.406;10.774;2023-07-28T00:07:53;15.90;99.90
7654;DHT22;3869;48.406;10.774;2023-07-28T00:10:20;15.90;99.90
7654;DHT22;3869;48.406;10.774;2023-07-28T00:12:49;15.90;99.90
7654;DHT22;3869;48.406;10.774;2023-07-28T00:15:16;15.90;99.90
7654;DHT22;3869;48.406;10.774;2023-07-28T00:17:46;15.80;99.90
7654;DHT22;3869;48.406;10.774;2023-07-28T00:20:14;15.80;99.90
7654;DHT22;3869;48.406;10.774;2023-07-28T00:22:42;15.70;99.90
7654;DHT22;3869;48.406;10.774;2023-07-28T00:25:10;15.60;99.90
7654;DHT22;3869;48.406;10.774;2023-07-28T00:27:38;15.60;99.90
7654;DHT22;3869;48.406;10.774;2023-07-28T00:30:07;15.60;99.90
7654;DHT22;3869;48.406;10.774;2023-07-28T00:32:35;15.60;99.90
7654;DHT22;3869;48.406;10.774;2023-07-28T00:35:05;15.60;99.90
7654;DHT22;3869;48.406;10.774;2023-07-28T00:37:33;15.60;99.90
7654;DHT22;3869;48.406;10.774;2023-07-28T00:40:01;15.50;99.90
7654;DHT22;3869;48.406;10.774;2023-07-28T00:42:29;15.50;99.90
7654;DHT22;3869;48.406;10.774;2023-07-28T00:44:58;15.50;99.90
7654;DHT22;3869;48.406;10.774;2023-07-28T00:47:26;15.50;99.90
7654;DHT22;3869;48.406;10.774;2023-07-28T00:49:54;15.40;99.90
7654;DHT22;3869;48.406;10.774;2023-07-28T00:52:24;15.50;99.90
7654;DHT22;3869;48.406;10.774;2023-07-28T00:54:52;15.50;99.90
7654;DHT22;3869;48.406;10.774;2023-07-28T00:57:20;15.50;99.90
7654;DHT22;3869;48.406;10.774;2023-07-28T00:59:48;15.40;99.90
7654;DHT22;3869;48.406;10.774;2023-07-28T01:02:17;15.40;99.90
7654;DHT22;3869;48.406;10.774;2023-07-28T01:04:46;15.30;99.90
7654;DHT22;3869;48.406;10.774;2023-07-28T01:07:17;15.30;99.90
7654;DHT22;3869;48.406;10.774;2023-07-28T01:09:55;15.30;99.90
7654;DHT22;3869;48.406;10.774;2023-07-28T01:12:24;15.20;99.90
7654;DHT22;3869;48.406;10.774;2023-07-28T01:14:52;15.20;99.90
7654;DHT22;3869;48.406;10.774;2023-07-28T01:17:20;15.20;99.90
7654;DHT22;3869;48.406;10.774;2023-07-28T01:19:51;15.20;99.90
7654;DHT22;3869;48.406;10.774;2023-07-28T01:22:59;15.20;99.90
7654;DHT22;3869;48.406;10.774;2023-07-28T01:25:43;15.20;99.90
7654;DHT22;3869;48.406;10.774;2023-07-28T01:28:17;15.20;99.90
7654;DHT22;3869;48.406;10.774;2023-07-28T01:30:45;15.20;99.90
7654;DHT22;3869;48.406;10.774;2023-07-28T01:33:13;15.20;99.90
7654;DHT22;3869;48.406;10.774;2023-07-28T01:35:41;15.20;99.90
7654;DHT22;3869;48.406;10.774;2023-07-28T01:38:09;15.10;99.90
7654;DHT22;3869;48.406;10.774;2023-07-28T01:40:38;15.10;99.90
7654;DHT22;3869;48.406;10.774;2023-07-28T01:43:06;15.00;99.90
7654;DHT22;3869;48.406;10.774;2023-07-28T01:45:36;15.00;99.90
7654;DHT22;3869;48.406;10.774;2023-07-28T01:48:04;15.00;99.90
7654;DHT22;3869;48.406;10.774;2023-07-28T01:50:35;15.00;99.90
7654;DHT22;3869;48.406;10.774;2023-07-28T01:53:04;15.00;99.90
7654;DHT22;3869;48.406;10.774;2023-07-28T01:55:32;14.90;99.90
7654;DHT22;3869;48.406;10.774;2023-07-28T01:58:01;15.00;99.90
7654;DHT22;3869;48.406;10.774;2023-07-28T02:00:29;15.00;99.90
7654;DHT22;3869;48.406;10.774;2023-07-28T02:02:59;15.00;99.90
7654;DHT22;3869;48.406;10.774;2023-07-28T02:05:28;15.00;99.90
7654;DHT22;3869;48.406;10.774;2023-07-28T02:07:57;15.00;99.90
7654;DHT22;3869;48.406;10.774;2023-07-28T02:10:26;15.00;99.90
7654;DHT22;3869;48.406;10.774;2023-07-28T02:12:54;15.00;99.90
7654;DHT22;3869;48.406;10.774;2023-07-28T02:15:22;15.00;99.90
7654;DHT22;3869;48.406;10.774;2023-07-28T02:17:50;15.00;99.90
7654;DHT22;3869;48.406;10.774;2023-07-28T02:20:19;15.00;99.90
7654;DHT22;3869;48.406;10.774;2023-07-28T02:22:47;14.90;99.90
7654;DHT22;3869;48.406;10.774;2023-07-28T02:25:15;14.90;99.90
7654;DHT22;3869;48.406;10.774;2023-07-28T02:27:43;14.90;99.90
7654;DHT22;3869;48.406;10.774;2023-07-28T02:30:11;14.80;99.90
7654;DHT22;3869;48.406;10.774;2023-07-28T02:32:39;14.70;99.90
7654;DHT22;3869;48.406;10.774;2023-07-28T02:35:08;14.70;99.90
7654;DHT22;3869;48.406;10.774;2023-07-28T02:37:38;14.70;99.90
7654;DHT22;3869;48.406;10.774;2023-07-28T02:40:07;14.70;99.90
7654;DHT22;3869;48.406;10.774;2023-07-28T02:42:36;14.70;99.90
7654;DHT22;3869;48.406;10.774;2023-07-28T02:45:04;14.70;99.90
7654;DHT22;3869;48.406;10.774;2023-07-28T02:47:32;14.70;99.90
7654;DHT22;3869;48.406;10.774;2023-07-28T02:50:00;14.70;99.90
7654;DHT22;3869;48.406;10.774;2023-07-28T02:52:28;14.70;99.90
7654;DHT22;3869;48.406;10.774;2023-07-28T02:54:58;14.70;99.90
7654;DHT22;3869;48.406;10.774;2023-07-28T02:57:26;14.60;99.90
7654;DHT22;3869;48.406;10.774;2023-07-28T02:59:54;14.60;99.90
7654;DHT22;3869;48.406;10.774;2023-07-28T03:02:22;14.70;99.90
7654;DHT22;3869;48.406;10.774;2023-07-28T03:04:50;14.70;99.90
7654;DHT22;3869;48.406;10.774;2023-07-28T03:07:18;14.70;99.90
7654;DHT22;3869;48.406;10.774;2023-07-28T03:09:46;14.70;99.90
7654;DHT22;3869;48.406;10.774;2023-07-28T03:12:15;14.60;99.90
7654;DHT22;3869;48.406;10.774;2023-07-28T03:14:43;14.60;99.90
7654;DHT22;3869;48.406;10.774;2023-07-28T03:17:11;14.70;99.90
7654;DHT22;3869;48.406;10.774;2023-07-28T03:19:39;14.60;99.90
7654;DHT22;3869;48.406;10.774;2023-07-28T03:22:07;14.70;99.90
7654;DHT22;3869;48.406;10.774;2023-07-28T03:24:35;14.70;99.90
7654;DHT22;3869;48.406;10.774;2023-07-28T03:27:04;14.60;99.90
7654;DHT22;3869;48.406;10.774;2023-07-28T03:29:33;14.60;99.90
7654;DHT22;3869;48.406;10.774;2023-07-28T03:32:01;14.60;99.90
7654;DHT22;3869;48.406;10.774;2023-07-28T03:34:29;14.60;99.90
7654;DHT22;3869;48.406;10.774;2023-07-28T03:36:57;14.60;99.90
7654;DHT22;3869;48.406;10.774;2023-07-28T03:39:25;14.60;99.90
7654;DHT22;3869;48.406;10.774;2023-07-28T03:41:53;14.60;99.90
7654;DHT22;3869;48.406;10.774;2023-07-28T03:44:21;14.60;99.90
7654;DHT22;3869;48.406;10.774;2023-07-28T03:46:50;14.50;99.90
7654;DHT22;3869;48.406;10.774;2023-07-28T03:49:18;14.50;99.90
7654;DHT22;3869;48.406;10.774;2023-07-28T03:51:47;14.50;99.90
7654;DHT22;3869;48.406;10.774;2023-07-28T03:54:15;14.50;99.90
7654;DHT22;3869;48.406;10.774;2023-07-28T03:56:43;14.60;99.90
7654;DHT22;3869;48.406;10.774;2023-07-28T03:59:11;14.60;99.90
7654;DHT22;3869;48.406;10.774;2023-07-28T04:01:39;14.60;99.90
7654;DHT22;3869;48.406;10.774;2023-07-28T04:04:08;14.60;99.90
7654;DHT22;3869;48.406;10.774;2023-07-28T04:06:40;14.60;99.90
7654;DHT22;3869;48.406;10.774;2023-07-28T04:09:09;14.60;99.90
7654;DHT22;3869;48.406;10.774;2023-07-28T04:11:38;14.60;99.90
7654;DHT22;3869;48.406;10.774;2023-07-28T04:14:06;14.60;99.90
7654;DHT22;3869;48.406;10.774;2023-07-28T04:16:34;14.60;99.90
7654;DHT22;3869;48.406;10.774;2023-07-28T04:19:03;14.70;99.90
7654;DHT22;3869;48.406;10.774;2023-07-28T04:21:32;14.70;99.90
7654;DHT22;3869;48.406;10.774;2023-07-28T04:24:00;14.70;99.90
7654;DHT22;3869;48.406;10.774;2023-07-28T04:26:28;14.70;99.90
7654;DHT22;3869;48.406;10.774;2023-07-28T04:28:55;14.70;99.90
7654;DHT22;3869;48.406;10.774;2023-07-28T04:31:23;14.70;99.90
7654;DHT22;3869;48.406;10.774;2023-07-28T04:33:51;14.80;99.90
7654;DHT22;3869;48.406;10.774;2023-07-28T04:36:19;14.80;99.90
7654;DHT22;3869;48.406;10.774;2023-07-28T04:38:49;14.80;99.90
7654;DHT22;3869;48.406;10.774;2023-07-28T04:41:17;14.90;99.90
7654;DHT22;3869;48.406;10.774;2023-07-28T04:43:45;14.90;99.90
7654;DHT22;3869;48.406;10.774;2023-07-28T04:46:13;14.90;99.90
7654;DHT22;3869;48.406;10.774;2023-07-28T04:48:41;14.90;99.90
7654;DHT22;3869;48.406;10.774;2023-07-28T04:51:09;14.90;99.90
7654;DHT22;3869;48.406;10.774;2023-07-28T04:53:37;15.00;99.90
7654;DHT22;3869;48.406;10.774;2023-07-28T04:56:06;15.00;99.90
7654;DHT22;3869;48.406;10.774;2023-07-28T04:58:34;15.00;99.90
7654;DHT22;3869;48.406;10.774;2023-07-28T05:01:02;15.10;99.90
7654;DHT22;3869;48.406;10.774;2023-07-28T05:03:31;15.10;99.90
7654;DHT22;3869;48.406;10.774;2023-07-28T05:05:59;15.20;99.90
7654;DHT22;3869;48.406;10.774;2023-07-28T05:08:27;15.20;99.90
7654;DHT22;3869;48.406;10.774;2023-07-28T05:10:56;15.30;99.90
7654;DHT22;3869;48.406;10.774;2023-07-28T05:13:25;15.30;99.90
7654;DHT22;3869;48.406;10.774;2023-07-28T05:15:53;15.30;99.90
7654;DHT22;3869;48.406;10.774;2023-07-28T05:18:21;15.40;99.90
7654;DHT22;3869;48.406;10.774;2023-07-28T05:20:49;15.40;99.90
7654;DHT22;3869;48.406;10.774;2023-07-28T05:23:17;15.50;99.90
7654;DHT22;3869;48.406;10.774;2023-07-28T05:25:45;15.50;99.90
7654;DHT22;3869;48.406;10.774;2023-07-28T05:28:13;15.50;99.90
7654;DHT22;3869;48.406;10.774;2023-07-28T05:30:43;15.60;99.90
7654;DHT22;3869;48.406;10.774;2023-07-28T05:33:11;15.60;99.90
7654;DHT22;3869;48.406;10.774;2023-07-28T05:35:39;15.60;99.90
7654;DHT22;3869;48.406;10.774;2023-07-28T05:38:07;15.70;99.90
7654;DHT22;3869;48.406;10.774;2023-07-28T05:40:35;15.70;99.90
7654;DHT22;3869;48.406;10.774;2023-07-28T05:43:02;15.80;99.90
7654;DHT22;3869;48.406;10.774;2023-07-28T05:45:30;15.90;99.90
7654;DHT22;3869;48.406;10.774;2023-07-28T05:48:00;16.00;99.90
7654;DHT22;3869;48.406;10.774;2023-07-28T05:50:28;16.10;99.90
7654;DHT22;3869;48.406;10.774;2023-07-28T05:52:56;16.20;99.90
7654;DHT22;3869;48.406;10.774;2023-07-28T05:55:24;16.30;99.90
7654;DHT22;3869;48.406;10.774;2023-07-28T05:57:54;16.40;99.90
7654;DHT22;3869;48.406;10.774;2023-07-28T06:00:22;16.50;99.90
7654;DHT22;3869;48.406;10.774;2023-07-28T06:02:50;16.50;99.90
7654;DHT22;3869;48.406;10.774;2023-07-28T06:05:20;16.60;99.90
7654;DHT22;3869;48.406;10.774;2023-07-28T06:07:48;16.60;99.90
7654;DHT22;3869;48.406;10.774;2023-07-28T06:10:16;16.70;99.90
7654;DHT22;3869;48.406;10.774;2023-07-28T06:12:44;16.80;99.90
7654;DHT22;3869;48.406;10.774;2023-07-28T06:15:12;16.90;99.90
7654;DHT22;3869;48.406;10.774;2023-07-28T06:17:40;17.00;99.90
7654;DHT22;3869;48.406;10.774;2023-07-28T06:20:09;17.10;99.90
7654;DHT22;3869;48.406;10.774;2023-07-28T06:22:39;17.10;99.90
7654;DHT22;3869;48.406;10.774;2023-07-28T06:25:07;17.20;99.90
7654;DHT22;3869;48.406;10.774;2023-07-28T06:27:35;17.30;99.90
7654;DHT22;3869;48.406;10.774;2023-07-28T06:30:04;17.40;99.90
7654;DHT22;3869;48.406;10.774;2023-07-28T06:32:32;17.50;99.90
7654;DHT22;3869;48.406;10.774;2023-07-28T06:35:00;17.60;99.90
7654;DHT22;3869;48.406;10.774;2023-07-28T06:37:29;17.80;99.90
7654;DHT22;3869;48.406;10.774;2023-07-28T06:39:59;17.80;99.90
7654;DHT22;3869;48.406;10.774;2023-07-28T06:42:27;17.90;99.90
7654;DHT22;3869;48.406;10.774;2023-07-28T06:44:55;17.90;99.90
7654;DHT22;3869;48.406;10.774;2023-07-28T06:47:23;18.00;99.90
7654;DHT22;3869;48.406;10.774;2023-07-28T06:49:51;18.10;99.90
7654;DHT22;3869;48.406;10.774;2023-07-28T06:52:19;18.20;99.90
7654;DHT22;3869;48.406;10.774;2023-07-28T06:54:47;18.30;99.90
7654;DHT22;3869;48.406;10.774;2023-07-28T06:57:17;18.30;99.90
7654;DHT22;3869;48.406;10.774;2023-07-28T06:59:45;18.30;99.90
7654;DHT22;3869;48.406;10.774;2023-07-28T07:02:13;18.40;99.90
7654;DHT22;3869;48.406;10.774;2023-07-28T07:04:42;18.40;99.90
7654;DHT22;3869;48.406;10.774;2023-07-28T07:07:10;18.50;99.90
7654;DHT22;3869;48.406;10.774;2023-07-28T07:09:38;18.50;99.90
7654;DHT22;3869;48.406;10.774;2023-07-28T07:12:08;18.60;99.90
7654;DHT22;3869;48.406;10.774;2023-07-28T07:14:37;18.70;99.90
7654;DHT22;3869;48.406;10.774;2023-07-28T07:17:06;18.80;99.90
7654;DHT22;3869;48.406;10.774;2023-07-28T07:19:34;18.90;99.90
7654;DHT22;3869;48.406;10.774;2023-07-28T07:22:02;19.00;99.90
7654;DHT22;3869;48.406;10.774;2023-07-28T07:24:30;19.00;99.90
7654;DHT22;3869;48.406;10.774;2023-07-28T07:26:59;19.00;99.90
7654;DHT22;3869;48.406;10.774;2023-07-28T07:29:26;19.10;99.90
7654;DHT22;3869;48.406;10.774;2023-07-28T07:31:56;19.20;99.90
7654;DHT22;3869;48.406;10.774;2023-07-28T07:34:24;19.20;99.90
7654;DHT22;3869;48.406;10.774;2023-07-28T07:36:52;19.20;99.90
7654;DHT22;3869;48.406;10.774;2023-07-28T07:39:20;19.20;99.90
7654;DHT22;3869;48.406;10.774;2023-07-28T07:41:48;19.20;99.90
7654;DHT22;3869;48.406;10.774;2023-07-28T07:44:16;19.30;99.90
7654;DHT22;3869;48.406;10.774;2023-07-28T07:46:44;19.30;99.90
7654;DHT22;3869;48.406;10.774;2023-07-28T07:49:14;19.30;99.90
7654;DHT22;3869;48.406;10.774;2023-07-28T07:51:42;19.40;99.90
7654;DHT22;3869;48.406;10.774;2023-07-28T07:54:10;19.40;99.90
7654;DHT22;3869;48.406;10.774;2023-07-28T07:56:42;19.40;99.90
7654;DHT22;3869;48.406;10.774;2023-07-28T07:59:10;19.50;99.90
7654;DHT22;3869;48.406;10.774;2023-07-28T08:01:38;19.60;99.90
7654;DHT22;3869;48.406;10.774;2023-07-28T08:04:07;19.60;99.90
7654;DHT22;3869;48.406;10.774;2023-07-28T08:06:37;19.70;99.90
7654;DHT22;3869;48.406;10.774;2023-07-28T08:09:05;19.70;99.90
7654;DHT22;3869;48.406;10.774;2023-07-28T08:11:33;19.70;99.90
7654;DHT22;3869;48.406;10.774;2023-07-28T08:14:01;19.70;99.90
7654;DHT22;3869;48.406;10.774;2023-07-28T08:16:29;19.70;99.90
7654;DHT22;3869;48.406;10.774;2023-07-28T08:18:57;19.70;99.90
7654;DHT22;3869;48.406;10.774;2023-07-28T08:21:25;19.70;99.90
7654;DHT22;3869;48.406;10.774;2023-07-28T08:23:55;19.80;99.90
7654;DHT22;3869;48.406;10.774;2023-07-28T08:26:23;19.80;99.90
7654;DHT22;3869;48.406;10.774;2023-07-28T08:28:51;19.90;99.90
7654;DHT22;3869;48.406;10.774;2023-07-28T08:31:19;20.00;99.90
7654;DHT22;3869;48.406;10.774;2023-07-28T08:33:47;20.10;99.90
7654;DHT22;3869;48.406;10.774;2023-07-28T08:36:15;20.10;99.90
7654;DHT22;3869;48.406;10.774;2023-07-28T08:38:43;20.10;99.90
7654;DHT22;3869;48.406;10.774;2023-07-28T08:41:13;20.20;99.90
7654;DHT22;3869;48.406;10.774;2023-07-28T08:43:42;20.30;99.90
7654;DHT22;3869;48.406;10.774;2023-07-28T08:46:10;20.30;99.90
7654;DHT22;3869;48.406;10.774;2023-07-28T08:48:38;20.40;99.90
7654;DHT22;3869;48.406;10.774;2023-07-28T08:51:06;20.50;99.90
7654;DHT22;3869;48.406;10.774;2023-07-28T08:53:35;20.50;99.90
7654;DHT22;3869;48.406;10.774;2023-07-28T08:56:03;20.60;99.90
7654;DHT22;3869;48.406;10.774;2023-07-28T08:58:34;20.70;99.90
7654;DHT22;3869;48.406;10.774;2023-07-28T09:01:02;20.70;99.90
7654;DHT22;3869;48.406;10.774;2023-07-28T09:03:31;20.80;99.90
7654;DHT22;3869;48.406;10.774;2023-07-28T09:06:01;20.90;99.90
7654;DHT22;3869;48.406;10.774;2023-07-28T09:08:31;21.00;99.90
7654;DHT22;3869;48.406;10.774;2023-07-28T09:11:02;21.00;99.90
7654;DHT22;3869;48.406;10.774;2023-07-28T09:13:38;21.00;99.90
7654;DHT22;3869;48.406;10.774;2023-07-28T09:16:16;21.00;99.90
7654;DHT22;3869;48.406;10.774;2023-07-28T09:18:44;20.90;99.90
7654;DHT22;3869;48.406;10.774;2023-07-28T09:21:16;20.90;99.90
7654;DHT22;3869;48.406;10.774;2023-07-28T09:23:45;20.90;99.90
7654;DHT22;3869;48.406;10.774;2023-07-28T09:26:14;21.00;99.90
7654;DHT22;3869;48.406;10.774;2023-07-28T09:28:43;21.00;99.90
7654;DHT22;3869;48.406;10.774;2023-07-28T09:31:11;21.00;99.90
7654;DHT22;3869;48.406;10.774;2023-07-28T09:33:40;21.00;99.90
7654;DHT22;3869;48.406;10.774;2023-07-28T09:36:14;21.10;99.90
7654;DHT22;3869;48.406;10.774;2023-07-28T09:38:43;21.10;99.90
7654;DHT22;3869;48.406;10.774;2023-07-28T09:41:11;21.20;99.90
7654;DHT22;3869;48.406;10.774;2023-07-28T09:43:41;21.20;99.90
7654;DHT22;3869;48.406;10.774;2023-07-28T09:46:10;21.30;99.90
7654;DHT22;3869;48.406;10.774;2023-07-28T09:48:45;21.30;99.90
7654;DHT22;3869;48.406;10.774;2023-07-28T09:51:17;21.40;99.90
7654;DHT22;3869;48.406;10.774;2023-07-28T09:53:53;21.40;99.90
7654;DHT22;3869;48.406;10.774;2023-07-28T09:56:25;21.50;99.90
7654;DHT22;3869;48.406;10.774;2023-07-28T09:58:56;21.60;99.90
7654;DHT22;3869;48.406;10.774;2023-07-28T10:01:27;21.60;99.90
7654;DHT22;3869;48.406;10.774;2023-07-28T10:03:56;21.60;99.90
7654;DHT22;3869;48.406;10.774;2023-07-28T10:06:24;21.60;99.90
7654;DHT22;3869;48.406;10.774;2023-07-28T10:08:52;21.70;99.90
7654;DHT22;3869;48.406;10.774;2023-07-28T10:11:21;21.60;99.90
7654;DHT22;3869;48.406;10.774;2023-07-28T10:13:51;21.60;99.90
7654;DHT22;3869;48.406;10.774;2023-07-28T10:16:31;21.70;99.90
7654;DHT22;3869;48.406;10.774;2023-07-28T10:19:05;21.60;99.90
7654;DHT22;3869;48.406;10.774;2023-07-28T10:21:39;21.50;99.90
7654;DHT22;3869;48.406;10.774;2023-07-28T10:24:08;21.50;99.90
7654;DHT22;3869;48.406;10.774;2023-07-28T10:26:37;21.40;99.90
7654;DHT22;3869;48.406;10.774;2023-07-28T10:29:10;21.30;99.90
7654;DHT22;3869;48.406;10.774;2023-07-28T10:31:49;21.20;99.90
7654;DHT22;3869;48.406;10.774;2023-07-28T10:34:18;21.20;99.90
7654;DHT22;3869;48.406;10.774;2023-07-28T10:36:56;21.20;99.90
7654;DHT22;3869;48.406;10.774;2023-07-28T10:39:24;21.20;99.90
7654;DHT22;3869;48.406;10.774;2023-07-28T10:42:04;21.30;99.90
7654;DHT22;3869;48.406;10.774;2023-07-28T10:44:32;21.30;99.90
7654;DHT22;3869;48.406;10.774;2023-07-28T10:47:07;21.30;99.90
7654;DHT22;3869;48.406;10.774;2023-07-28T10:49:35;21.30;99.90
7654;DHT22;3869;48.406;10.774;2023-07-28T10:52:03;21.40;99.90
7654;DHT22;3869;48.406;10.774;2023-07-28T10:54:32;21.40;99.90
7654;DHT22;3869;48.406;10.774;2023-07-28T10:57:02;21.50;99.90
7654;DHT22;3869;48.406;10.774;2023-07-28T10:59:33;21.60;99.90
7654;DHT22;3869;48.406;10.774;2023-07-28T11:02:04;21.60;99.90
7654;DHT22;3869;48.406;10.774;2023-07-28T11:04:32;21.60;99.90
7654;DHT22;3869;48.406;10.774;2023-07-28T11:07:00;21.70;99.90
7654;DHT22;3869;48.406;10.774;2023-07-28T11:09:29;21.60;99.90
7654;DHT22;3869;48.406;10.774;2023-07-28T11:11:57;21.60;99.90
7654;DHT22;3869;48.406;10.774;2023-07-28T11:14:26;21.60;99.90
7654;DHT22;3869;48.406;10.774;2023-07-28T11:16:56;21.60;99.90
7654;DHT22;3869;48.406;10.774;2023-07-28T11:19:25;21.70;99.90
7654;DHT22;3869;48.406;10.774;2023-07-28T11:21:55;21.70;99.90
7654;DHT22;3869;48.406;10.774;2023-07-28T11:24:25;21.80;99.90
7654;DHT22;3869;48.406;10.774;2023-07-28T11:26:54;21.90;99.90
7654;DHT22;3869;48.406;10.774;2023-07-28T11:29:23;22.00;99.90
7654;DHT22;3869;48.406;10.774;2023-07-28T11:31:51;22.20;99.90
7654;DHT22;3869;48.406;10.774;2023-07-28T11:34:19;22.30;99.90
7654;DHT22;3869;48.406;10.774;2023-07-28T11:36:48;22.40;99.90
7654;DHT22;3869;48.406;10.774;2023-07-28T11:39:17;22.50;99.90
7654;DHT22;3869;48.406;10.774;2023-07-28T11:41:48;22.60;99.90
7654;DHT22;3869;48.406;10.774;2023-07-28T11:44:20;22.70;99.90
7654;DHT22;3869;48.406;10.774;2023-07-28T11:46:49;22.70;99.90
7654;DHT22;3869;48.406;10.774;2023-07-28T11:49:20;22.70;99.90
7654;DHT22;3869;48.406;10.774;2023-07-28T11:51:52;22.80;99.90
7654;DHT22;3869;48.406;10.774;2023-07-28T11:54:22;22.90;99.90
7654;DHT22;3869;48.406;10.774;2023-07-28T11:56:54;23.10;99.90
7654;DHT22;3869;48.406;10.774;2023-07-28T11:59:23;23.20;99.90
7654;DHT22;3869;48.406;10.774;2023-07-28T12:01:53;23.30;99.90
7654;DHT22;3869;48.406;10.774;2023-07-28T12:04:25;23.40;99.90
7654;DHT22;3869;48.406;10.774;2023-07-28T12:07:03;23.50;99.90
7654;DHT22;3869;48.406;10.774;2023-07-28T12:09:50;23.50;99.90
7654;DHT22;3869;48.406;10.774;2023-07-28T12:12:23;23.50;99.90
7654;DHT22;3869;48.406;10.774;2023-07-28T12:14:51;23.50;99.90
7654;DHT22;3869;48.406;10.774;2023-07-28T12:17:23;23.60;99.90
7654;DHT22;3869;48.406;10.774;2023-07-28T12:20:15;23.70;99.90
7654;DHT22;3869;48.406;10.774;2023-07-28T12:22:45;23.80;99.90
7654;DHT22;3869;48.406;10.774;2023-07-28T12:25:14;23.80;99.90
7654;DHT22;3869;48.406;10.774;2023-07-28T12:27:43;23.80;99.90
7654;DHT22;3869;48.406;10.774;2023-07-28T12:30:11;23.80;99.90
7654;DHT22;3869;48.406;10.774;2023-07-28T12:32:43;23.70;99.90
7654;DHT22;3869;48.406;10.774;2023-07-28T12:35:14;23.70;99.90
7654;DHT22;3869;48.406;10.774;2023-07-28T12:37:42;23.70;99.90
7654;DHT22;3869;48.406;10.774;2023-07-28T12:40:14;23.60;99.90
7654;DHT22;3869;48.406;10.774;2023-07-28T12:42:45;23.60;99.90
7654;DHT22;3869;48.406;10.774;2023-07-28T12:45:16;23.60;99.90
7654;DHT22;3869;48.406;10.774;2023-07-28T12:47:48;23.50;99.90
7654;DHT22;3869;48.406;10.774;2023-07-28T12:50:24;23.50;99.90
7654;DHT22;3869;48.406;10.774;2023-07-28T12:52:52;23.40;99.90
7654;DHT22;3869;48.406;10.774;2023-07-28T12:55:25;23.40;99.90
7654;DHT22;3869;48.406;10.774;2023-07-28T12:57:54;23.30;99.90
7654;DHT22;3869;48.406;10.774;2023-07-28T13:00:22;23.30;99.90
7654;DHT22;3869;48.406;10.774;2023-07-28T13:02:53;23.20;99.90
7654;DHT22;3869;48.406;10.774;2023-07-28T13:05:21;23.00;99.90
7654;DHT22;3869;48.406;10.774;2023-07-28T13:07:49;22.90;99.90
7654;DHT22;3869;48.406;10.774;2023-07-28T13:10:20;22.60;99.90
7654;DHT22;3869;48.406;10.774;2023-07-28T13:12:52;22.30;99.90
7654;DHT22;3869;48.406;10.774;2023-07-28T13:15:23;21.80;99.90
7654;DHT22;3869;48.406;10.774;2023-07-28T13:17:51;21.50;99.90
7654;DHT22;3869;48.406;10.774;2023-07-28T13:20:19;21.30;99.90
7654;DHT22;3869;48.406;10.774;2023-07-28T13:22:47;21.00;99.90
7654;DHT22;3869;48.406;10.774;2023-07-28T13:25:15;20.90;99.90
7654;DHT22;3869;48.406;10.774;2023-07-28T13:27:44;20.80;99.90
7654;DHT22;3869;48.406;10.774;2023-07-28T13:30:13;20.70;99.90
7654;DHT22;3869;48.406;10.774;2023-07-28T13:32:41;20.60;99.90
7654;DHT22;3869;48.406;10.774;2023-07-28T13:35:09;20.60;99.90
7654;DHT22;3869;48.406;10.774;2023-07-28T13:37:37;20.40;99.90
7654;DHT22;3869;48.406;10.774;2023-07-28T13:40:06;20.30;99.90
7654;DHT22;3869;48.406;10.774;2023-07-28T13:42:38;20.20;99.90
7654;DHT22;3869;48.406;10.774;2023-07-28T13:45:08;20.20;99.90
7654;DHT22;3869;48.406;10.774;2023-07-28T13:47:37;20.10;99.90
7654;DHT22;3869;48.406;10.774;2023-07-28T13:50:06;20.20;99.90
7654;DHT22;3869;48.406;10.774;2023-07-28T13:52:34;20.20;99.90
7654;DHT22;3869;48.406;10.774;2023-07-28T13:55:03;20.30;99.90
7654;DHT22;3869;48.406;10.774;2023-07-28T13:57:35;20.30;99.90
7654;DHT22;3869;48.406;10.774;2023-07-28T14:00:03;20.40;99.90
7654;DHT22;3869;48.406;10.774;2023-07-28T14:02:37;20.30;99.90
7654;DHT22;3869;48.406;10.774;2023-07-28T14:05:06;20.30;99.90
7654;DHT22;3869;48.406;10.774;2023-07-28T14:07:35;20.40;99.90
7654;DHT22;3869;48.406;10.774;2023-07-28T14:10:04;20.40;99.90
7654;DHT22;3869;48.406;10.774;2023-07-28T14:12:33;20.40;99.90
7654;DHT22;3869;48.406;10.774;2023-07-28T14:15:01;20.50;99.90
7654;DHT22;3869;48.406;10.774;2023-07-28T14:17:29;20.50;99.90
7654;DHT22;3869;48.406;10.774;2023-07-28T14:19:59;20.50;99.90
7654;DHT22;3869;48.406;10.774;2023-07-28T14:22:27;20.50;99.90
7654;DHT22;3869;48.406;10.774;2023-07-28T14:24:55;20.50;99.90
7654;DHT22;3869;48.406;10.774;2023-07-28T14:27:23;20.50;99.90
7654;DHT22;3869;48.406;10.774;2023-07-28T14:29:51;20.50;99.90
7654;DHT22;3869;48.406;10.774;2023-07-28T14:32:19;20.60;99.90
7654;DHT22;3869;48.406;10.774;2023-07-28T14:34:47;20.60;99.90
7654;DHT22;3869;48.406;10.774;2023-07-28T14:37:16;20.70;99.90
7654;DHT22;3869;48.406;10.774;2023-07-28T14:39:44;20.70;99.90
7654;DHT22;3869;48.406;10.774;2023-07-28T14:42:12;20.80;99.90
7654;DHT22;3869;48.406;10.774;2023-07-28T14:44:40;20.80;99.90
7654;DHT22;3869;48.406;10.774;2023-07-28T14:47:08;20.80;99.90
7654;DHT22;3869;48.406;10.774;2023-07-28T14:49:36;20.80;99.90
7654;DHT22;3869;48.406;10.774;2023-07-28T14:52:05;20.80;99.90
7654;DHT22;3869;48.406;10.774;2023-07-28T14:54:35;20.90;99.90
7654;DHT22;3869;48.406;10.774;2023-07-28T14:57:03;21.00;99.90
7654;DHT22;3869;48.406;10.774;2023-07-28T14:59:40;21.00;99.90
7654;DHT22;3869;48.406;10.774;2023-07-28T15:02:08;21.00;99.90
7654;DHT22;3869;48.406;10.774;2023-07-28T15:04:38;21.10;99.90
7654;DHT22;3869;48.406;10.774;2023-07-28T15:07:06;21.10;99.90
7654;DHT22;3869;48.406;10.774;2023-07-28T15:09:37;21.00;99.90
7654;DHT22;3869;48.406;10.774;2023-07-28T15:12:05;21.00;99.90
7654;DHT22;3869;48.406;10.774;2023-07-28T15:14:33;21.10;99.90
7654;DHT22;3869;48.406;10.774;2023-07-28T15:17:01;21.10;99.90
7654;DHT22;3869;48.406;10.774;2023-07-28T15:19:30;21.20;99.90
7654;DHT22;3869;48.406;10.774;2023-07-28T15:21:58;21.10;99.90
7654;DHT22;3869;48.406;10.774;2023-07-28T15:24:26;21.10;99.90
7654;DHT22;3869;48.406;10.774;2023-07-28T15:26:55;21.10;99.90
7654;DHT22;3869;48.406;10.774;2023-07-28T15:29:23;21.20;99.90
7654;DHT22;3869;48.406;10.774;2023-07-28T15:31:51;21.20;99.90
7654;DHT22;3869;48.406;10.774;2023-07-28T15:34:20;21.20;99.90
7654;DHT22;3869;48.406;10.774;2023-07-28T15:36:48;21.20;99.90
7654;DHT22;3869;48.406;10.774;2023-07-28T15:39:16;21.10;99.90
7654;DHT22;3869;48.406;10.774;2023-07-28T15:41:44;21.10;99.90
7654;DHT22;3869;48.406;10.774;2023-07-28T15:44:14;21.10;99.90
7654;DHT22;3869;48.406;10.774;2023-07-28T15:46:42;21.10;99.90
7654;DHT22;3869;48.406;10.774;2023-07-28T15:49:10;21.20;99.90
7654;DHT22;3869;48.406;10.774;2023-07-28T15:51:38;21.20;99.90
7654;DHT22;3869;48.406;10.774;2023-07-28T15:54:06;21.20;99.90
7654;DHT22;3869;48.406;10.774;2023-07-28T15:56:34;21.20;99.90